Time;durP1;ratioP1;P1;durP2;ratioP2;P2;SDS_P1;SDS_P2;PMS_P1;PMS_P2;Temp;Humidity;BMP_temperature;BMP_pressure;BME280_temperature;BME280_humidity;BME280_pressure;Samples;Min_cycle;Max_cycle;Signal;HPM_P1;HPM_P2
2022/09/12 00:01:21;;;;;;;4.97;4.53;;;14.60;99.90;14.60;100722.00;;;;4934744;28;117226;-68
2022/09/12 00:03:47;;;;;;;6.13;4.55;;;14.60;99.90;14.50;100724.00;;;;4931714;28;87991;-68
2022/09/12 00:06:25;;;;;;;4.93;4.43;;;14.50;99.90;14.40;100722.00;;;;4921485;28;109869;-68
2022/09/12 00:08:55;;;;;;;5.40;4.10;;;14.40;99.90;14.40;100714.00;;;;4928544;28;87353;-68
2022/09/12 00:11:21;;;;;;;5.83;4.33;;;14.40;99.90;14.30;100712.00;;;;4908772;28;87964;-68
2022/09/12 00:13:47;;;;;;;6.20;4.43;;;14.30;99.90;14.20;100706.00;;;;4929974;28;89144;-68
2022/09/12 00:16:22;;;;;;;4.17;3.73;;;14.20;99.90;14.10;100702.00;;;;4931679;28;88661;-68
2022/09/12 00:18:48;;;;;;;5.77;4.00;;;14.10;99.90;14.10;100705.00;;;;4928276;28;88686;-68
2022/09/12 00:21:16;;;;;;;6.80;4.20;;;14.10;99.90;14.00;100703.00;;;;4934943;28;88565;-68
2022/09/12 00:23:42;;;;;;;9.60;5.40;;;14.00;99.90;14.00;100704.00;;;;4934485;28;92648;-68
2022/09/12 00:26:08;;;;;;;5.57;4.73;;;14.00;99.90;13.90;100710.00;;;;4923922;28;88040;-68
2022/09/12 00:28:37;;;;;;;6.43;4.53;;;13.90;99.90;13.80;100706.00;;;;4908429;28;93578;-68
2022/09/12 00:31:07;;;;;;;6.57;5.53;;;13.80;99.90;13.80;100711.00;;;;4927774;28;88289;-68
2022/09/12 00:33:33;;;;;;;6.07;4.50;;;13.80;99.90;13.80;100712.00;;;;4930323;28;87065;-68
2022/09/12 00:36:04;;;;;;;5.90;5.30;;;13.70;99.90;13.70;100703.00;;;;4929582;28;87827;-68
2022/09/12 00:38:29;;;;;;;5.33;4.50;;;13.70;99.90;13.70;100702.00;;;;4915145;28;87901;-68
2022/09/12 00:40:55;;;;;;;5.43;4.50;;;13.70;99.90;13.70;100707.00;;;;4913325;28;116471;-68
2022/09/12 00:43:29;;;;;;;8.03;6.40;;;13.70;99.90;13.60;100711.00;;;;4930888;28;109062;-67
2022/09/12 00:45:56;;;;;;;7.10;4.93;;;13.60;99.90;13.60;100712.00;;;;4921971;28;104550;-67
2022/09/12 00:49:19;;;;;;;10.33;4.87;;;13.90;99.90;13.50;100712.00;;;;4924151;28;110189;-67
2022/09/12 00:52:15;;;;;;;8.00;5.53;;;13.50;99.90;13.50;100701.00;;;;4914072;28;90080;-67
2022/09/12 00:55:10;;;;;;;6.27;4.83;;;13.50;99.90;13.50;100709.00;;;;4929791;28;87833;-67
2022/09/12 00:57:53;;;;;;;7.23;4.20;;;13.50;99.90;13.50;100709.00;;;;4934108;28;88058;-67
2022/09/12 01:00:23;;;;;;;6.10;4.40;;;13.50;99.90;13.40;100709.00;;;;4921262;28;87402;-67
2022/09/12 01:03:14;;;;;;;5.83;5.23;;;13.40;99.90;13.40;100708.00;;;;4930295;28;87851;-67
2022/09/12 01:05:52;;;;;;;8.10;5.97;;;13.40;99.90;13.40;100704.00;;;;4927704;28;87926;-66
2022/09/12 01:08:19;;;;;;;6.03;5.53;;;13.40;99.90;13.40;100705.00;;;;4925453;28;94633;-67
2022/09/12 01:10:45;;;;;;;10.03;6.57;;;13.40;99.90;13.40;100698.00;;;;4909767;28;101621;-67
2022/09/12 01:13:11;;;;;;;8.63;5.43;;;13.40;99.90;13.40;100699.00;;;;4916134;28;118656;-67
2022/09/12 01:15:38;;;;;;;6.67;5.10;;;13.40;99.90;13.40;100695.00;;;;4913529;28;111824;-67
2022/09/12 01:18:39;;;;;;;8.97;5.03;;;13.40;99.90;13.40;100698.00;;;;4933710;28;95316;-67
2022/09/12 01:21:17;;;;;;;7.47;5.67;;;13.40;99.90;13.40;100694.00;;;;4916734;28;88154;-67
2022/09/12 01:24:22;;;;;;;6.37;4.23;;;13.30;99.90;13.30;100698.00;;;;4907581;28;110191;-66
2022/09/12 01:27:05;;;;;;;10.07;6.63;;;13.40;99.90;13.40;100687.00;;;;4939697;28;103673;-67
2022/09/12 01:30:20;;;;;;;7.63;5.90;;;13.40;99.90;13.30;100685.00;;;;4910124;28;99189;-67
2022/09/12 01:33:01;;;;;;;7.20;4.93;;;13.40;99.90;13.30;100696.00;;;;4929308;28;88178;-66
2022/09/12 01:36:12;;;;;;;7.03;5.83;;;13.30;99.90;13.30;100697.00;;;;4914130;28;88972;-68
2022/09/12 01:38:46;;;;;;;7.30;4.60;;;13.30;99.90;13.30;100685.00;;;;4850870;28;88261;-66
2022/09/12 01:41:29;;;;;;;6.67;5.13;;;13.30;99.90;13.30;100689.00;;;;4831967;28;87879;-66
2022/09/12 01:44:29;;;;;;;5.63;4.47;;;13.30;99.90;13.30;100677.00;;;;4879507;28;99051;-66
2022/09/12 01:47:23;;;;;;;4.97;4.50;;;13.30;99.90;13.30;100677.00;;;;4924994;28;87907;-67
2022/09/12 01:50:09;;;;;;;8.27;5.60;;;13.30;99.90;13.30;100680.00;;;;4928994;28;87752;-67
2022/09/12 01:52:58;;;;;;;7.70;5.97;;;13.30;99.90;13.30;100673.00;;;;4927583;28;101284;-67
2022/09/12 01:55:51;;;;;;;6.27;5.53;;;13.30;99.90;13.30;100684.00;;;;4913128;28;109867;-67
2022/09/12 01:58:28;;;;;;;7.20;5.13;;;13.30;99.90;13.20;100675.00;;;;4913387;28;88990;-67
2022/09/12 02:01:09;;;;;;;5.43;4.60;;;13.30;99.90;13.20;100675.00;;;;4913282;28;88037;-67
2022/09/12 02:03:58;;;;;;;5.60;5.10;;;13.20;99.90;13.20;100671.00;;;;4907048;28;97496;-67
2022/09/12 02:06:39;;;;;;;10.90;6.17;;;13.20;99.90;13.20;100678.00;;;;4929806;28;88813;-67
2022/09/12 02:09:19;;;;;;;9.33;5.50;;;13.20;99.90;13.20;100684.00;;;;4930736;28;87804;-67
2022/09/12 02:11:47;;;;;;;7.23;5.10;;;13.20;99.90;13.20;100670.00;;;;4918510;28;87957;-67
2022/09/12 02:14:24;;;;;;;11.27;6.17;;;13.20;99.90;13.20;100674.00;;;;4933976;28;102647;-67
2022/09/12 02:16:57;;;;;;;6.37;5.53;;;13.20;99.90;13.30;100673.00;;;;4931338;28;89126;-67
2022/09/12 02:19:28;;;;;;;9.23;5.77;;;13.30;99.90;13.30;100678.00;;;;4914606;28;88908;-67
2022/09/12 02:21:58;;;;;;;7.77;5.87;;;13.10;99.90;13.40;100675.00;;;;4915870;28;103590;-68
2022/09/12 02:24:30;;;;;;;8.73;6.80;;;13.30;99.90;13.40;100672.00;;;;4908371;28;87909;-67
2022/09/12 02:27:43;;;;;;;13.07;7.50;;;13.40;99.90;13.40;100675.00;;;;4928822;28;88526;-67
2022/09/12 02:30:09;;;;;;;6.67;6.00;;;13.40;99.90;13.50;100666.00;;;;4930046;28;108348;-67
2022/09/12 02:33:05;;;;;;;7.60;6.23;;;13.40;99.90;13.50;100663.00;;;;4935797;28;89824;-67
2022/09/12 02:36:06;;;;;;;9.97;6.23;;;13.50;99.90;13.50;100659.00;;;;4918916;28;87925;-67
2022/09/12 02:38:46;;;;;;;8.20;6.93;;;13.50;99.90;13.50;100670.00;;;;4930041;28;90046;-67
2022/09/12 02:41:17;;;;;;;10.43;6.40;;;13.50;99.90;13.50;100659.00;;;;4926956;28;116984;-67
2022/09/12 02:43:43;;;;;;;6.37;5.77;;;13.50;99.90;13.60;100665.00;;;;4930413;28;87666;-67
2022/09/12 02:46:28;;;;;;;9.43;6.87;;;13.50;99.90;13.60;100670.00;;;;4927284;28;108988;-67
2022/09/12 02:48:54;;;;;;;11.70;6.33;;;13.50;99.90;13.60;100663.00;;;;4912653;28;106711;-67
2022/09/12 02:51:21;;;;;;;13.00;7.10;;;13.60;99.90;13.60;100663.00;;;;4932872;28;88085;-68
2022/09/12 02:53:47;;;;;;;11.67;7.53;;;13.60;99.90;13.60;100664.00;;;;4937054;28;87833;-67
2022/09/12 02:56:22;;;;;;;8.67;6.33;;;13.60;99.90;13.70;100654.00;;;;4934826;28;108112;-67
2022/09/12 02:58:48;;;;;;;15.50;6.53;;;13.40;99.90;13.70;100658.00;;;;4909273;28;105338;-68
2022/09/12 03:01:39;;;;;;;11.97;7.80;;;13.60;99.90;13.70;100655.00;;;;4926672;28;118154;-67
2022/09/12 03:04:43;;;;;;;8.43;6.20;;;13.70;99.90;13.70;100655.00;;;;4928225;28;87814;-67
2022/09/12 03:07:45;;;;;;;7.03;5.27;;;13.70;99.90;13.70;100667.00;;;;4930390;28;87871;-67
2022/09/12 03:10:55;;;;;;;10.23;6.00;;;13.70;99.90;13.70;100668.00;;;;4912209;28;88332;-67
2022/09/12 03:13:55;;;;;;;6.63;5.80;;;13.70;99.90;13.70;100664.00;;;;4933614;28;88893;-67
2022/09/12 03:16:43;;;;;;;6.30;4.80;;;13.70;99.90;13.70;100660.00;;;;4916241;28;104854;-67
2022/09/12 03:19:30;;;;;;;6.40;5.07;;;13.70;99.90;13.70;100662.00;;;;4932252;28;88063;-67
2022/09/12 03:22:15;;;;;;;7.23;6.10;;;13.70;99.90;13.70;100651.00;;;;4929603;28;88817;-67
2022/09/12 03:24:57;;;;;;;7.60;5.03;;;13.70;99.90;13.70;100655.00;;;;4927975;28;88704;-66
2022/09/12 03:27:33;;;;;;;7.10;4.00;;;13.70;99.90;13.70;100666.00;;;;4944812;28;97890;-66
2022/09/12 03:29:59;;;;;;;6.03;5.33;;;13.70;99.90;13.70;100677.00;;;;4933959;28;88029;-67
2022/09/12 03:32:51;;;;;;;7.47;5.83;;;13.70;99.90;13.70;100667.00;;;;4934754;28;118217;-66
2022/09/12 03:35:20;;;;;;;6.47;5.73;;;13.70;99.90;13.70;100671.00;;;;4934499;28;88655;-67
2022/09/12 03:37:48;;;;;;;6.50;4.53;;;13.70;99.90;13.80;100673.00;;;;4930289;28;87758;-67
2022/09/12 03:40:14;;;;;;;6.97;4.00;;;13.70;99.90;13.70;100676.00;;;;4929839;28;88070;-67
2022/09/12 03:42:41;;;;;;;7.00;5.67;;;13.70;99.90;13.70;100680.00;;;;4930369;28;96646;-67
2022/09/12 03:45:08;;;;;;;5.07;4.53;;;13.70;99.90;13.70;100679.00;;;;4927863;28;88107;-67
2022/09/12 03:47:34;;;;;;;4.30;3.90;;;13.70;99.90;13.70;100674.00;;;;4931825;28;88090;-66
2022/09/12 03:50:01;;;;;;;4.33;3.90;;;13.70;99.90;13.70;100677.00;;;;4934303;28;96054;-67
2022/09/12 03:52:26;;;;;;;4.83;4.13;;;13.70;99.90;13.70;100676.00;;;;4935648;28;87971;-67
2022/09/12 03:54:52;;;;;;;5.77;5.13;;;13.70;99.90;13.70;100683.00;;;;4934721;28;88302;-66
2022/09/12 03:57:18;;;;;;;5.43;4.37;;;13.70;99.90;13.70;100682.00;;;;4930937;28;97474;-67
2022/09/12 03:59:44;;;;;;;4.73;3.90;;;13.70;99.90;13.70;100677.00;;;;4928574;28;109121;-67
2022/09/12 04:02:12;;;;;;;8.67;6.50;;;13.70;99.90;13.70;100679.00;;;;4925658;28;117257;-67
2022/09/12 04:04:41;;;;;;;5.63;4.40;;;13.70;99.90;13.70;100677.00;;;;4925039;28;88615;-67
2022/09/12 04:07:07;;;;;;;5.50;4.80;;;13.70;99.90;13.70;100680.00;;;;4928381;28;87095;-66
2022/09/12 04:09:33;;;;;;;6.13;4.47;;;13.70;99.90;13.70;100683.00;;;;4932884;28;87712;-66
2022/09/12 04:11:58;;;;;;;7.77;4.30;;;13.70;99.90;13.80;100676.00;;;;4933771;28;118066;-66
2022/09/12 04:14:24;;;;;;;7.57;4.57;;;13.70;99.90;13.80;100674.00;;;;4930923;28;117788;-66
2022/09/12 04:16:50;;;;;;;5.37;4.67;;;13.70;99.90;13.80;100685.00;;;;4930340;28;109600;-66
2022/09/12 04:19:15;;;;;;;4.60;3.90;;;13.70;99.90;13.80;100677.00;;;;4928196;28;107002;-66
2022/09/12 04:21:41;;;;;;;7.47;5.47;;;13.80;99.90;13.80;100682.00;;;;4928226;28;117715;-67
2022/09/12 04:24:07;;;;;;;5.43;4.53;;;13.80;99.90;13.80;100684.00;;;;4927518;28;88335;-66
2022/09/12 04:26:33;;;;;;;3.67;3.37;;;13.80;99.90;13.80;100686.00;;;;4930725;28;88096;-66
2022/09/12 04:28:58;;;;;;;8.27;5.00;;;13.80;99.90;13.80;100684.00;;;;4933171;28;109050;-66
2022/09/12 04:31:25;;;;;;;6.40;4.67;;;13.80;99.90;13.80;100683.00;;;;4935158;28;117289;-66
2022/09/12 04:33:55;;;;;;;6.13;4.13;;;13.80;99.90;13.80;100682.00;;;;4930255;28;87998;-66
2022/09/12 04:36:22;;;;;;;5.87;3.70;;;13.80;99.90;13.80;100685.00;;;;4908676;28;88077;-66
2022/09/12 04:38:48;;;;;;;5.53;4.90;;;13.80;99.90;13.80;100685.00;;;;4928088;28;88691;-66
2022/09/12 04:41:21;;;;;;;5.03;4.60;;;13.80;99.90;13.80;100681.00;;;;4926724;28;88214;-66
2022/09/12 04:43:51;;;;;;;5.07;3.90;;;13.80;99.90;13.90;100678.00;;;;4927695;28;89199;-66
2022/09/12 04:46:19;;;;;;;6.60;4.57;;;13.80;99.90;13.90;100681.00;;;;4928099;28;96058;-66
2022/09/12 04:48:45;;;;;;;5.13;4.63;;;13.80;99.90;13.90;100687.00;;;;4934517;28;87708;-66
2022/09/12 04:51:15;;;;;;;5.53;4.57;;;13.80;99.90;13.80;100686.00;;;;4933728;28;109093;-66
2022/09/12 04:53:42;;;;;;;6.33;4.93;;;13.80;99.90;13.90;100685.00;;;;4929113;28;88179;-66
2022/09/12 04:56:10;;;;;;;7.13;3.63;;;13.80;99.90;13.90;100684.00;;;;4930261;28;103943;-66
2022/09/12 04:58:36;;;;;;;6.90;4.50;;;13.90;99.90;13.90;100693.00;;;;4928839;28;87723;-66
2022/09/12 05:01:14;;;;;;;6.97;4.07;;;13.90;99.90;13.90;100695.00;;;;4920880;28;117384;-66
2022/09/12 05:03:44;;;;;;;5.10;4.23;;;13.90;99.90;13.90;100690.00;;;;4920833;28;108477;-66
2022/09/12 05:06:17;;;;;;;10.60;5.53;;;13.90;99.90;13.90;100696.00;;;;4928315;28;87669;-66
2022/09/12 05:08:44;;;;;;;5.03;4.47;;;13.90;99.90;13.90;100692.00;;;;4930677;28;88068;-66
2022/09/12 05:11:13;;;;;;;5.73;4.63;;;13.90;99.90;13.90;100701.00;;;;4928365;28;88094;-66
2022/09/12 05:13:40;;;;;;;4.73;3.77;;;13.80;99.90;13.90;100695.00;;;;4922856;28;89217;-66
2022/09/12 05:16:09;;;;;;;5.17;4.67;;;13.90;99.90;13.90;100699.00;;;;4925565;28;98994;-66
2022/09/12 05:18:36;;;;;;;5.93;4.07;;;13.90;99.90;13.90;100698.00;;;;4915047;28;87787;-66
2022/09/12 05:21:06;;;;;;;6.83;4.00;;;13.90;99.90;13.90;100700.00;;;;4927326;28;86921;-66
2022/09/12 05:23:32;;;;;;;5.30;4.23;;;13.90;99.90;13.90;100704.00;;;;4908037;28;89245;-66
2022/09/12 05:26:00;;;;;;;7.83;5.53;;;13.90;99.90;13.90;100702.00;;;;4925010;28;101330;-66
2022/09/12 05:28:36;;;;;;;6.17;4.03;;;13.90;99.90;14.00;100699.00;;;;4928562;28;88735;-66
2022/09/12 05:31:20;;;;;;;5.50;4.10;;;13.90;99.90;13.90;100708.00;;;;4933606;28;88605;-66
2022/09/12 05:33:49;;;;;;;6.00;3.50;;;13.90;99.90;14.00;100715.00;;;;4930509;28;88670;-66
2022/09/12 05:36:22;;;;;;;5.30;4.80;;;13.90;99.90;14.00;100714.00;;;;4928973;28;87678;-66
2022/09/12 05:38:48;;;;;;;7.37;3.80;;;14.00;99.90;14.00;100716.00;;;;4926989;28;87802;-66
2022/09/12 05:41:23;;;;;;;4.53;4.13;;;14.00;99.90;14.10;100713.00;;;;4914515;28;117225;-65
2022/09/12 05:43:57;;;;;;;5.50;4.10;;;14.00;99.90;14.10;100717.00;;;;4929685;28;88130;-65
2022/09/12 05:46:27;;;;;;;5.13;4.07;;;14.00;99.90;14.10;100716.00;;;;4931832;28;87092;-65
2022/09/12 05:48:54;;;;;;;5.03;3.73;;;14.00;99.90;14.10;100722.00;;;;4930604;28;87884;-66
2022/09/12 05:51:34;;;;;;;5.07;4.10;;;14.00;99.90;14.10;100723.00;;;;4928171;28;88459;-65
2022/09/12 05:54:03;;;;;;;4.00;3.57;;;14.10;99.90;14.10;100728.00;;;;4929189;28;106537;-65
2022/09/12 05:56:37;;;;;;;5.27;4.23;;;14.10;99.90;14.10;100721.00;;;;4927300;28;101769;-65
2022/09/12 05:59:11;;;;;;;6.07;4.20;;;14.10;99.90;14.10;100725.00;;;;4929598;28;87759;-65
2022/09/12 06:01:36;;;;;;;6.27;5.23;;;14.00;99.90;14.10;100722.00;;;;4923061;28;88605;-66
2022/09/12 06:04:05;;;;;;;6.77;4.63;;;14.10;99.90;14.10;100723.00;;;;4930430;28;88504;-65
2022/09/12 06:06:34;;;;;;;4.97;4.43;;;14.10;99.90;14.20;100725.00;;;;4932833;28;87754;-65
2022/09/12 06:09:03;;;;;;;8.33;4.30;;;14.10;99.90;14.20;100736.00;;;;4930886;28;88233;-65
2022/09/12 06:11:32;;;;;;;4.70;4.30;;;14.10;99.90;14.20;100733.00;;;;4932738;28;87717;-66
2022/09/12 06:13:59;;;;;;;4.30;3.90;;;14.20;99.90;14.20;100732.00;;;;4928163;28;88083;-65
2022/09/12 06:16:30;;;;;;;6.90;5.23;;;14.20;99.90;14.30;100739.00;;;;4927685;28;87441;-65
2022/09/12 06:19:05;;;;;;;5.50;4.37;;;14.20;99.90;14.30;100739.00;;;;4926353;28;89164;-65
2022/09/12 06:21:33;;;;;;;6.17;4.37;;;14.30;99.90;14.40;100731.00;;;;4924862;28;88110;-66
2022/09/12 06:23:59;;;;;;;6.07;4.23;;;14.30;99.90;14.40;100738.00;;;;4934057;28;87844;-66
2022/09/12 06:26:28;;;;;;;8.27;5.03;;;14.40;99.90;14.40;100731.00;;;;4934021;28;101517;-65
2022/09/12 06:28:55;;;;;;;6.90;4.90;;;14.40;99.90;14.50;100746.00;;;;4917189;28;87904;-66
2022/09/12 06:31:28;;;;;;;4.33;4.00;;;14.40;99.90;14.50;100746.00;;;;4930521;28;102848;-66
2022/09/12 06:33:55;;;;;;;8.23;5.15;;;14.40;99.90;14.50;100751.00;;;;4929956;28;87884;-66
2022/09/12 06:36:26;;;;;;;5.35;4.63;;;14.50;99.90;14.60;100741.00;;;;4927097;28;87592;-66
2022/09/12 06:39:00;;;;;;;6.38;4.72;;;14.50;99.90;14.60;100748.00;;;;4925985;28;98475;-66
2022/09/12 06:41:26;;;;;;;5.30;4.73;;;14.50;99.90;14.60;100751.00;;;;4914691;28;87953;-65
2022/09/12 06:43:52;;;;;;;6.75;5.20;;;14.50;99.90;14.70;100748.00;;;;4933590;28;88634;-66
2022/09/12 06:46:18;;;;;;;7.28;5.35;;;14.40;99.90;14.70;100749.00;;;;4939962;28;87761;-67
2022/09/12 06:48:44;;;;;;;4.60;3.67;;;14.60;99.90;14.80;100758.00;;;;4936035;28;87678;-66
2022/09/12 06:51:13;;;;;;;9.30;4.95;;;14.70;99.90;14.80;100758.00;;;;4930997;28;116874;-66
2022/09/12 06:53:40;;;;;;;8.77;4.75;;;14.70;99.90;15.00;100759.00;;;;4933670;28;87891;-66
2022/09/12 06:56:18;;;;;;;6.60;4.65;;;14.80;99.90;15.10;100755.00;;;;4921318;28;87898;-67
2022/09/12 06:58:44;;;;;;;5.15;4.32;;;15.00;99.90;15.20;100761.00;;;;4929989;28;87827;-66
2022/09/12 07:01:32;;;;;;;4.43;4.03;;;15.10;99.90;15.30;100757.00;;;;4926893;28;87899;-66
2022/09/12 07:04:03;;;;;;;6.60;3.92;;;15.20;99.90;15.40;100752.00;;;;4932882;28;116810;-66
2022/09/12 07:06:49;;;;;;;8.65;4.10;;;15.30;99.90;15.40;100759.00;;;;4939479;28;88128;-66
2022/09/12 07:09:15;;;;;;;5.65;4.10;;;15.40;99.90;15.50;100763.00;;;;4930704;28;88765;-66
2022/09/12 07:11:42;;;;;;;5.80;3.95;;;15.40;99.90;15.60;100763.00;;;;4934713;28;88095;-66
2022/09/12 07:14:12;;;;;;;4.72;3.97;;;15.50;99.90;15.80;100758.00;;;;4936915;28;88458;-66
2022/09/12 07:16:38;;;;;;;4.82;3.30;;;15.60;99.90;15.90;100770.00;;;;4938223;28;87907;-65
2022/09/12 07:19:06;;;;;;;4.18;3.17;;;15.70;99.90;16.00;100763.00;;;;4938517;28;108622;-65
2022/09/12 07:21:38;;;;;;;3.78;3.25;;;15.90;99.90;16.10;100766.00;;;;4933887;28;88604;-65
2022/09/12 07:24:04;;;;;;;7.75;4.30;;;16.00;99.90;16.20;100773.00;;;;4939328;28;88496;-65
2022/09/12 07:26:30;;;;;;;4.50;3.42;;;16.10;99.90;16.30;100768.00;;;;4937238;28;102266;-65
2022/09/12 07:28:58;;;;;;;5.50;3.65;;;16.20;99.90;16.40;100773.00;;;;4933814;28;87835;-65
2022/09/12 07:31:26;;;;;;;6.45;3.58;;;16.30;99.90;16.50;100761.00;;;;4933337;28;88816;-65
2022/09/12 07:33:52;;;;;;;4.70;4.20;;;16.40;99.90;16.60;100770.00;;;;4934689;28;88822;-64
2022/09/12 07:36:22;;;;;;;6.28;3.75;;;16.40;99.90;16.70;100772.00;;;;4935945;28;87832;-64
2022/09/12 07:38:53;;;;;;;4.00;3.65;;;16.50;99.90;16.80;100765.00;;;;4928954;28;88094;-64
2022/09/12 07:41:22;;;;;;;6.65;3.78;;;16.60;99.90;16.80;100760.00;;;;4937631;28;89675;-63
2022/09/12 07:43:53;;;;;;;4.03;3.38;;;16.70;99.90;16.80;100765.00;;;;4935038;28;88478;-64
2022/09/12 07:46:19;;;;;;;5.55;3.50;;;16.80;99.90;16.90;100767.00;;;;4941108;28;87977;-64
2022/09/12 07:48:52;;;;;;;3.10;2.88;;;16.80;99.90;16.90;100766.00;;;;4926756;28;94695;-64
2022/09/12 07:51:19;;;;;;;5.22;3.17;;;16.80;99.90;16.90;100771.00;;;;4933557;28;87538;-63
2022/09/12 07:53:46;;;;;;;5.13;3.35;;;16.80;99.90;17.00;100773.00;;;;4933233;28;87840;-64
2022/09/12 07:56:12;;;;;;;4.55;3.78;;;16.90;99.90;17.10;100770.00;;;;4934020;28;87998;-63
2022/09/12 07:58:40;;;;;;;4.45;3.35;;;17.00;99.90;17.10;100767.00;;;;4936182;28;88876;-63
2022/09/12 08:01:12;;;;;;;5.20;3.88;;;17.00;99.90;17.10;100768.00;;;;4939359;28;89010;-63
2022/09/12 08:03:49;;;;;;;3.80;3.42;;;17.00;99.90;17.10;100764.00;;;;4932617;28;88596;-63
2022/09/12 08:06:22;;;;;;;2.90;2.70;;;17.00;99.90;17.10;100776.00;;;;4926728;28;88089;-63
2022/09/12 08:08:49;;;;;;;6.70;4.22;;;17.00;99.90;17.20;100773.00;;;;4928061;28;87761;-63
2022/09/12 08:11:18;;;;;;;5.22;3.65;;;17.10;99.90;17.30;100778.00;;;;4930230;28;89176;-63
2022/09/12 08:13:44;;;;;;;8.25;4.18;;;17.20;99.90;17.40;100776.00;;;;4931765;28;103023;-63
2022/09/12 08:16:20;;;;;;;5.28;3.63;;;17.30;99.90;17.50;100785.00;;;;4929384;28;109166;-63
2022/09/12 08:18:47;;;;;;;5.93;3.55;;;17.30;99.90;17.70;100781.00;;;;4928757;28;87690;-62
2022/09/12 08:21:25;;;;;;;3.47;3.17;;;17.50;99.90;17.80;100784.00;;;;4932127;28;110598;-62
2022/09/12 08:24:03;;;;;;;4.47;3.03;;;17.70;99.90;18.10;100782.00;;;;4932344;28;89211;-62
2022/09/12 08:26:30;;;;;;;3.38;2.53;;;17.80;99.90;18.20;100785.00;;;;4920162;28;87741;-62
2022/09/12 08:28:56;;;;;;;4.22;3.08;;;18.00;99.90;18.30;100781.00;;;;4926637;28;100423;-62
2022/09/12 08:31:24;;;;;;;5.53;2.20;;;18.10;99.90;18.40;100781.00;;;;4924562;28;103890;-62
2022/09/12 08:33:50;;;;;;;3.63;2.83;;;18.20;99.90;18.50;100778.00;;;;4929020;28;88069;-63
2022/09/12 08:36:20;;;;;;;3.15;2.55;;;18.30;99.90;18.60;100776.00;;;;4929792;28;87950;-63
2022/09/12 08:38:49;;;;;;;4.03;3.17;;;18.40;99.90;18.60;100783.00;;;;4930707;28;87685;-62
2022/09/12 08:41:17;;;;;;;4.25;2.72;;;18.50;99.90;18.80;100792.00;;;;4930996;28;90434;-62
2022/09/12 08:44:16;;;;;;;5.07;2.83;;;18.60;99.90;19.10;100780.00;;;;4934185;28;88109;-61
2022/09/12 08:47:25;;;;;;;3.35;2.53;;;18.90;99.90;19.40;100786.00;;;;4928265;28;87710;-62
2022/09/12 08:50:16;;;;;;;4.53;2.78;;;19.10;99.90;19.60;100774.00;;;;4915745;28;88838;-62
2022/09/12 08:53:13;;;;;;;3.40;2.38;;;19.40;99.90;19.80;100785.00;;;;4928036;28;88095;-62
2022/09/12 08:55:58;;;;;;;3.95;2.47;;;19.60;99.90;19.80;100783.00;;;;4916768;28;88244;-62
2022/09/12 08:58:27;;;;;;;3.13;2.00;;;19.70;99.90;19.80;100779.00;;;;4917085;28;87702;-62
2022/09/12 09:01:00;;;;;;;4.53;2.30;;;19.70;99.90;19.80;100779.00;;;;4917658;28;87945;-62
2022/09/12 09:04:16;;;;;;;2.35;1.92;;;19.70;99.90;19.90;100776.00;;;;4927097;28;98812;-62
2022/09/12 09:07:15;;;;;;;2.38;1.58;;;19.70;99.90;20.20;100780.00;;;;4914264;28;87908;-61
2022/09/12 09:10:12;;;;;;;1.58;1.45;;;19.90;99.90;20.60;100775.00;;;;4929970;28;87246;-62
2022/09/12 09:13:02;;;;;;;2.42;1.50;;;20.30;99.90;21.10;100770.00;;;;4917014;28;87648;-62
2022/09/12 09:15:49;;;;;;;1.83;1.30;;;20.60;99.90;21.60;100776.00;;;;4911053;28;108560;-62
2022/09/12 09:18:23;;;;;;;2.40;1.38;;;21.20;99.90;22.00;100776.00;;;;4912945;28;112713;-62
2022/09/12 09:20:55;;;;;;;2.25;1.40;;;21.60;99.90;22.20;100771.00;;;;4915082;28;87884;-62
2022/09/12 09:23:49;;;;;;;1.27;1.20;;;21.90;99.90;22.60;100764.00;;;;4928523;28;87760;-62
2022/09/12 09:26:25;;;;;;;1.00;0.90;;;22.20;99.90;22.90;100773.00;;;;4902542;28;88076;-62
2022/09/12 09:29:34;;;;;;;1.95;1.48;;;22.60;99.90;23.20;100782.00;;;;4896992;28;87965;-62
2022/09/12 09:32:13;;;;;;;1.40;1.30;;;22.80;99.90;23.50;100775.00;;;;4898744;28;87951;-62
2022/09/12 09:34:39;;;;;;;2.85;1.55;;;23.00;99.90;23.80;100786.00;;;;4930615;28;100185;-62
2022/09/12 09:37:15;;;;;;;1.83;1.30;;;23.30;99.90;24.20;100770.00;;;;4930690;28;117676;-62
2022/09/12 09:40:16;;;;;;;1.50;1.17;;;23.70;99.90;24.60;100762.00;;;;4915202;28;110311;-61
2022/09/12 09:43:30;;;;;;;1.75;1.23;;;24.10;99.90;24.80;100761.00;;;;4928033;28;88303;-61
2022/09/12 09:45:59;;;;;;;1.10;1.00;;;24.40;97.50;24.70;100769.00;;;;4913885;28;89001;-62
2022/09/12 09:48:35;;;;;;;1.00;0.90;;;24.40;95.80;24.60;100765.00;;;;4927788;28;87874;-61
2022/09/12 09:51:04;;;;;;;1.60;1.20;;;24.30;94.60;24.40;100767.00;;;;4927131;28;88851;-62
2022/09/12 09:53:53;;;;;;;0.82;0.82;;;24.10;92.70;24.20;100771.00;;;;4911648;28;88086;-58
2022/09/12 09:56:34;;;;;;;0.82;0.82;;;24.00;94.40;24.40;100775.00;;;;4930108;28;88296;-61
2022/09/12 09:59:14;;;;;;;1.08;0.73;;;24.00;96.20;24.90;100770.00;;;;4930041;28;89120;-61
2022/09/12 10:01:53;;;;;;;1.23;0.57;;;24.30;96.40;25.40;100768.00;;;;4930902;28;88325;-62
2022/09/12 10:04:30;;;;;;;1.20;0.55;;;24.70;96.10;25.80;100770.00;;;;4916011;28;87241;-61
2022/09/12 10:06:59;;;;;;;1.02;0.80;;;25.20;94.40;26.30;100777.00;;;;4922668;28;88916;-61
2022/09/12 10:09:34;;;;;;;0.50;0.50;;;25.60;92.70;26.80;100772.00;;;;4909004;28;109170;-63
2022/09/12 10:12:19;;;;;;;1.65;0.77;;;26.00;92.60;27.00;100777.00;;;;4926790;28;89332;-62
2022/09/12 10:15:00;;;;;;;0.60;0.60;;;26.40;90.40;27.10;100772.00;;;;4928221;28;87773;-63
2022/09/12 10:17:38;;;;;;;1.05;0.40;;;26.50;89.00;27.10;100778.00;;;;4931618;28;103028;-63
2022/09/12 10:20:35;;;;;;;0.40;0.40;;;26.50;86.30;26.80;100771.00;;;;4929730;28;111410;-63
2022/09/12 10:23:22;;;;;;;0.75;0.40;;;26.40;82.80;26.70;100775.00;;;;4929214;28;87811;-62
2022/09/12 10:25:55;;;;;;;1.60;0.50;;;26.30;81.80;26.60;100764.00;;;;4925423;28;87742;-63
2022/09/12 10:28:52;;;;;;;0.38;0.38;;;26.20;79.80;26.50;100763.00;;;;4910395;28;87808;-63
2022/09/12 10:31:28;;;;;;;0.57;0.32;;;26.10;78.30;26.70;100761.00;;;;4928558;28;88678;-62
2022/09/12 10:33:57;;;;;;;0.38;0.38;;;26.20;78.00;26.70;100764.00;;;;4931504;28;96061;-62
2022/09/12 10:36:24;;;;;;;1.95;0.50;;;26.20;77.50;26.60;100756.00;;;;4934609;28;103985;-62
2022/09/12 10:38:59;;;;;;;0.40;0.40;;;26.20;76.20;26.40;100766.00;;;;4917113;28;99567;-62
2022/09/12 10:41:25;;;;;;;0.50;0.50;;;26.10;75.80;26.20;100763.00;;;;4926135;28;88502;-62
2022/09/12 10:43:50;;;;;;;0.50;0.30;;;25.90;75.40;26.10;100769.00;;;;4924326;28;117636;-62
2022/09/12 10:46:16;;;;;;;0.80;0.50;;;25.80;74.10;25.90;100764.00;;;;4930156;28;109310;-62
2022/09/12 10:49:03;;;;;;;1.35;0.32;;;25.60;74.00;25.80;100761.00;;;;4928862;28;107809;-62
2022/09/12 10:51:29;;;;;;;4.28;0.68;;;25.50;72.20;25.70;100757.00;;;;4928901;28;88671;-62
2022/09/12 10:54:04;;;;;;;0.22;0.22;;;25.40;73.30;25.90;100754.00;;;;4932474;28;117821;-61
2022/09/12 10:56:42;;;;;;;0.38;0.35;;;25.50;72.60;25.90;100758.00;;;;4917565;28;87064;-62
2022/09/12 11:00:00;;;;;;;0.52;0.30;;;25.60;70.70;26.10;100755.00;;;;4935397;28;87818;-62
2022/09/12 11:02:49;;;;;;;0.63;0.30;;;25.60;69.80;26.40;100763.00;;;;4931428;28;88624;-61
2022/09/12 11:05:52;;;;;;;0.50;0.40;;;25.90;69.90;26.90;100757.00;;;;4925542;28;88658;-62
2022/09/12 11:08:53;;;;;;;0.43;0.32;;;26.20;70.20;27.50;100752.00;;;;4930992;28;88037;-62
2022/09/12 11:11:40;;;;;;;0.65;0.63;;;26.80;69.50;27.60;100753.00;;;;4930034;28;87766;-63
2022/09/12 11:14:32;;;;;;;0.30;0.30;;;27.10;66.00;27.40;100753.00;;;;4928624;28;97104;-62
2022/09/12 11:17:21;;;;;;;0.38;0.38;;;27.00;64.60;27.20;100757.00;;;;4916845;28;111854;-62
2022/09/12 11:20:31;;;;;;;0.65;0.30;;;26.80;65.50;27.00;100759.00;;;;4915147;28;88226;-62
2022/09/12 11:23:40;;;;;;;0.47;0.45;;;26.70;66.20;26.70;100758.00;;;;4930714;28;103228;-63